sensor_id;sensor_type;location;lat;lon;timestamp;P1;durP1;ratioP1;P2;durP2;ratioP2
68714;SDS011;55692;53.356;10.030;2023-04-19T00:01:01;8.80;;;5.60;;
68714;SDS011;55692;53.356;10.030;2023-04-19T00:03:27;10.38;;;6.22;;
68714;SDS011;55692;53.356;10.030;2023-04-19T00:05:54;11.23;;;6.22;;
68714;SDS011;55692;53.356;10.030;2023-04-19T00:08:22;11.75;;;6.13;;
68714;SDS011;55692;53.356;10.030;2023-04-19T00:10:48;12.35;;;5.97;;
68714;SDS011;55692;53.356;10.030;2023-04-19T00:13:14;9.73;;;6.05;;
68714;SDS011;55692;53.356;10.030;2023-04-19T00:15:40;12.30;;;7.03;;
68714;SDS011;55692;53.356;10.030;2023-04-19T00:18:06;10.32;;;6.03;;
68714;SDS011;55692;53.356;10.030;2023-04-19T00:20:32;11.75;;;5.70;;
68714;SDS011;55692;53.356;10.030;2023-04-19T00:22:58;10.80;;;5.72;;
68714;SDS011;55692;53.356;10.030;2023-04-19T00:25:25;11.82;;;6.47;;
68714;SDS011;55692;53.356;10.030;2023-04-19T00:27:52;10.93;;;5.95;;
68714;SDS011;55692;53.356;10.030;2023-04-19T00:30:18;11.43;;;6.25;;
68714;SDS011;55692;53.356;10.030;2023-04-19T00:32:44;14.00;;;6.82;;
68714;SDS011;55692;53.356;10.030;2023-04-19T00:35:10;11.88;;;6.07;;
68714;SDS011;55692;53.356;10.030;2023-04-19T00:37:36;12.80;;;6.47;;
68714;SDS011;55692;53.356;10.030;2023-04-19T00:40:02;12.20;;;6.93;;
68714;SDS011;55692;53.356;10.030;2023-04-19T00:42:29;12.27;;;6.35;;
68714;SDS011;55692;53.356;10.030;2023-04-19T00:44:55;11.93;;;6.10;;
68714;SDS011;55692;53.356;10.030;2023-04-19T00:47:21;15.90;;;6.68;;
68714;SDS011;55692;53.356;10.030;2023-04-19T00:49:47;10.95;;;5.88;;
68714;SDS011;55692;53.356;10.030;2023-04-19T00:52:13;15.07;;;6.60;;
68714;SDS011;55692;53.356;10.030;2023-04-19T00:54:39;13.10;;;6.93;;
68714;SDS011;55692;53.356;10.030;2023-04-19T00:57:08;16.92;;;7.10;;
68714;SDS011;55692;53.356;10.030;2023-04-19T00:59:34;12.07;;;5.85;;
68714;SDS011;55692;53.356;10.030;2023-04-19T01:02:00;14.30;;;6.63;;
68714;SDS011;55692;53.356;10.030;2023-04-19T01:04:26;13.15;;;5.82;;
68714;SDS011;55692;53.356;10.030;2023-04-19T01:06:52;12.65;;;6.63;;
68714;SDS011;55692;53.356;10.030;2023-04-19T01:09:18;9.43;;;5.43;;
68714;SDS011;55692;53.356;10.030;2023-04-19T01:11:44;12.77;;;6.05;;
68714;SDS011;55692;53.356;10.030;2023-04-19T01:14:10;10.70;;;6.30;;
68714;SDS011;55692;53.356;10.030;2023-04-19T01:16:36;11.07;;;5.97;;
68714;SDS011;55692;53.356;10.030;2023-04-19T01:19:03;12.68;;;6.55;;
68714;SDS011;55692;53.356;10.030;2023-04-19T01:21:29;9.88;;;5.72;;
68714;SDS011;55692;53.356;10.030;2023-04-19T01:23:56;14.35;;;5.88;;
68714;SDS011;55692;53.356;10.030;2023-04-19T01:26:22;14.45;;;6.55;;
68714;SDS011;55692;53.356;10.030;2023-04-19T01:28:48;13.88;;;6.80;;
68714;SDS011;55692;53.356;10.030;2023-04-19T01:31:14;12.55;;;6.68;;
68714;SDS011;55692;53.356;10.030;2023-04-19T01:33:40;11.95;;;6.20;;
68714;SDS011;55692;53.356;10.030;2023-04-19T01:36:06;10.55;;;5.85;;
68714;SDS011;55692;53.356;10.030;2023-04-19T01:38:32;12.15;;;6.47;;
68714;SDS011;55692;53.356;10.030;2023-04-19T01:40:59;14.07;;;6.68;;
68714;SDS011;55692;53.356;10.030;2023-04-19T01:43:25;9.63;;;5.47;;
68714;SDS011;55692;53.356;10.030;2023-04-19T01:45:51;10.93;;;5.68;;
68714;SDS011;55692;53.356;10.030;2023-04-19T01:48:17;9.43;;;5.25;;
68714;SDS011;55692;53.356;10.030;2023-04-19T01:50:43;10.45;;;5.43;;
68714;SDS011;55692;53.356;10.030;2023-04-19T01:53:09;11.27;;;5.90;;
68714;SDS011;55692;53.356;10.030;2023-04-19T01:55:35;14.52;;;5.45;;
68714;SDS011;55692;53.356;10.030;2023-04-19T01:58:01;9.48;;;5.03;;
68714;SDS011;55692;53.356;10.030;2023-04-19T02:00:27;10.02;;;5.35;;
68714;SDS011;55692;53.356;10.030;2023-04-19T02:02:53;10.13;;;5.28;;
68714;SDS011;55692;53.356;10.030;2023-04-19T02:05:19;11.20;;;6.43;;
68714;SDS011;55692;53.356;10.030;2023-04-19T02:07:45;11.30;;;5.20;;
68714;SDS011;55692;53.356;10.030;2023-04-19T02:10:11;10.32;;;5.25;;
68714;SDS011;55692;53.356;10.030;2023-04-19T02:12:37;10.25;;;5.43;;
68714;SDS011;55692;53.356;10.030;2023-04-19T02:15:03;11.85;;;6.03;;
68714;SDS011;55692;53.356;10.030;2023-04-19T02:17:29;8.70;;;5.25;;
68714;SDS011;55692;53.356;10.030;2023-04-19T02:19:56;9.00;;;4.95;;
68714;SDS011;55692;53.356;10.030;2023-04-19T02:22:22;8.60;;;5.25;;
68714;SDS011;55692;53.356;10.030;2023-04-19T02:24:48;8.05;;;4.63;;
68714;SDS011;55692;53.356;10.030;2023-04-19T02:27:15;10.18;;;5.13;;
68714;SDS011;55692;53.356;10.030;2023-04-19T02:29:41;6.47;;;4.60;;
68714;SDS011;55692;53.356;10.030;2023-04-19T02:32:07;12.95;;;4.95;;
68714;SDS011;55692;53.356;10.030;2023-04-19T02:34:33;9.20;;;5.05;;
68714;SDS011;55692;53.356;10.030;2023-04-19T02:36:59;9.98;;;5.00;;
68714;SDS011;55692;53.356;10.030;2023-04-19T02:39:25;11.63;;;5.15;;
68714;SDS011;55692;53.356;10.030;2023-04-19T02:41:51;9.93;;;5.10;;
68714;SDS011;55692;53.356;10.030;2023-04-19T02:44:17;8.73;;;4.80;;
68714;SDS011;55692;53.356;10.030;2023-04-19T02:46:53;12.63;;;5.22;;
68714;SDS011;55692;53.356;10.030;2023-04-19T02:49:19;12.48;;;5.47;;
68714;SDS011;55692;53.356;10.030;2023-04-19T02:51:45;12.18;;;5.57;;
68714;SDS011;55692;53.356;10.030;2023-04-19T02:54:11;9.27;;;4.85;;
68714;SDS011;55692;53.356;10.030;2023-04-19T02:56:37;11.85;;;5.35;;
68714;SDS011;55692;53.356;10.030;2023-04-19T02:59:03;9.25;;;4.82;;
68714;SDS011;55692;53.356;10.030;2023-04-19T03:01:30;10.32;;;5.18;;
68714;SDS011;55692;53.356;10.030;2023-04-19T03:03:56;8.02;;;4.68;;
68714;SDS011;55692;53.356;10.030;2023-04-19T03:06:22;8.82;;;4.75;;
68714;SDS011;55692;53.356;10.030;2023-04-19T03:08:49;10.07;;;4.38;;
68714;SDS011;55692;53.356;10.030;2023-04-19T03:11:15;10.48;;;5.95;;
68714;SDS011;55692;53.356;10.030;2023-04-19T03:13:42;7.80;;;4.35;;
68714;SDS011;55692;53.356;10.030;2023-04-19T03:16:08;10.65;;;4.50;;
68714;SDS011;55692;53.356;10.030;2023-04-19T03:18:34;8.88;;;4.78;;
68714;SDS011;55692;53.356;10.030;2023-04-19T03:21:01;9.77;;;5.00;;
68714;SDS011;55692;53.356;10.030;2023-04-19T03:23:27;10.45;;;4.63;;
68714;SDS011;55692;53.356;10.030;2023-04-19T03:25:53;10.13;;;4.65;;
68714;SDS011;55692;53.356;10.030;2023-04-19T03:28:19;11.40;;;4.88;;
68714;SDS011;55692;53.356;10.030;2023-04-19T03:30:45;7.93;;;4.25;;
68714;SDS011;55692;53.356;10.030;2023-04-19T03:33:11;8.80;;;4.47;;
68714;SDS011;55692;53.356;10.030;2023-04-19T03:35:37;8.55;;;5.28;;
68714;SDS011;55692;53.356;10.030;2023-04-19T03:38:03;10.98;;;4.60;;
68714;SDS011;55692;53.356;10.030;2023-04-19T03:40:31;9.52;;;4.70;;
68714;SDS011;55692;53.356;10.030;2023-04-19T03:42:57;7.57;;;4.43;;
68714;SDS011;55692;53.356;10.030;2023-04-19T03:45:23;7.93;;;4.43;;
68714;SDS011;55692;53.356;10.030;2023-04-19T03:47:49;7.93;;;4.15;;
68714;SDS011;55692;53.356;10.030;2023-04-19T03:50:15;7.25;;;4.25;;
68714;SDS011;55692;53.356;10.030;2023-04-19T03:52:41;8.60;;;4.25;;
68714;SDS011;55692;53.356;10.030;2023-04-19T03:55:07;9.20;;;4.65;;
68714;SDS011;55692;53.356;10.030;2023-04-19T03:57:33;8.18;;;4.43;;
68714;SDS011;55692;53.356;10.030;2023-04-19T04:00:00;9.50;;;4.40;;
68714;SDS011;55692;53.356;10.030;2023-04-19T04:02:26;9.02;;;4.70;;
68714;SDS011;55692;53.356;10.030;2023-04-19T04:04:52;6.57;;;4.13;;
68714;SDS011;55692;53.356;10.030;2023-04-19T04:07:19;10.05;;;4.50;;
68714;SDS011;55692;53.356;10.030;2023-04-19T04:09:45;8.75;;;4.15;;
68714;SDS011;55692;53.356;10.030;2023-04-19T04:12:12;8.13;;;4.43;;
68714;SDS011;55692;53.356;10.030;2023-04-19T04:14:38;11.55;;;4.72;;
68714;SDS011;55692;53.356;10.030;2023-04-19T04:17:04;7.57;;;4.38;;
68714;SDS011;55692;53.356;10.030;2023-04-19T04:19:30;9.48;;;4.53;;
68714;SDS011;55692;53.356;10.030;2023-04-19T04:21:56;7.35;;;4.90;;
68714;SDS011;55692;53.356;10.030;2023-04-19T04:24:22;13.32;;;5.15;;
68714;SDS011;55692;53.356;10.030;2023-04-19T04:26:48;10.02;;;4.60;;
68714;SDS011;55692;53.356;10.030;2023-04-19T04:29:15;8.80;;;4.50;;
68714;SDS011;55692;53.356;10.030;2023-04-19T04:31:41;7.00;;;4.57;;
68714;SDS011;55692;53.356;10.030;2023-04-19T04:34:07;14.02;;;4.80;;
68714;SDS011;55692;53.356;10.030;2023-04-19T04:36:34;9.55;;;4.45;;
68714;SDS011;55692;53.356;10.030;2023-04-19T04:39:01;12.57;;;4.50;;
68714;SDS011;55692;53.356;10.030;2023-04-19T04:41:27;9.55;;;4.35;;
68714;SDS011;55692;53.356;10.030;2023-04-19T04:43:55;8.90;;;4.22;;
68714;SDS011;55692;53.356;10.030;2023-04-19T04:46:22;11.88;;;4.90;;
68714;SDS011;55692;53.356;10.030;2023-04-19T04:48:48;7.40;;;4.68;;
68714;SDS011;55692;53.356;10.030;2023-04-19T04:51:14;8.90;;;4.60;;
68714;SDS011;55692;53.356;10.030;2023-04-19T04:53:40;9.98;;;4.15;;
68714;SDS011;55692;53.356;10.030;2023-04-19T04:56:06;7.25;;;3.92;;
68714;SDS011;55692;53.356;10.030;2023-04-19T04:58:32;6.93;;;4.07;;
68714;SDS011;55692;53.356;10.030;2023-04-19T05:00:58;8.10;;;3.95;;
68714;SDS011;55692;53.356;10.030;2023-04-19T05:03:24;10.35;;;3.95;;
68714;SDS011;55692;53.356;10.030;2023-04-19T05:05:51;5.95;;;3.20;;
68714;SDS011;55692;53.356;10.030;2023-04-19T05:08:17;7.45;;;2.90;;
68714;SDS011;55692;53.356;10.030;2023-04-19T05:10:43;9.07;;;3.40;;
68714;SDS011;55692;53.356;10.030;2023-04-19T05:13:09;5.88;;;3.03;;
68714;SDS011;55692;53.356;10.030;2023-04-19T05:15:36;6.47;;;2.92;;
68714;SDS011;55692;53.356;10.030;2023-04-19T05:18:02;7.15;;;2.92;;
68714;SDS011;55692;53.356;10.030;2023-04-19T05:20:28;6.22;;;3.00;;
68714;SDS011;55692;53.356;10.030;2023-04-19T05:22:57;6.53;;;3.28;;
68714;SDS011;55692;53.356;10.030;2023-04-19T05:25:24;5.25;;;3.00;;
68714;SDS011;55692;53.356;10.030;2023-04-19T05:27:50;8.50;;;4.03;;
68714;SDS011;55692;53.356;10.030;2023-04-19T05:30:16;7.72;;;2.63;;
68714;SDS011;55692;53.356;10.030;2023-04-19T05:32:42;6.40;;;3.10;;
68714;SDS011;55692;53.356;10.030;2023-04-19T05:35:08;8.00;;;2.53;;
68714;SDS011;55692;53.356;10.030;2023-04-19T05:37:35;6.43;;;3.13;;
68714;SDS011;55692;53.356;10.030;2023-04-19T05:40:01;6.95;;;2.92;;
68714;SDS011;55692;53.356;10.030;2023-04-19T05:42:29;5.13;;;2.15;;
68714;SDS011;55692;53.356;10.030;2023-04-19T05:44:55;5.20;;;1.98;;
68714;SDS011;55692;53.356;10.030;2023-04-19T05:47:21;6.05;;;2.30;;
68714;SDS011;55692;53.356;10.030;2023-04-19T05:49:47;6.18;;;2.03;;
68714;SDS011;55692;53.356;10.030;2023-04-19T05:52:13;4.30;;;2.17;;
68714;SDS011;55692;53.356;10.030;2023-04-19T05:54:39;4.88;;;2.38;;
68714;SDS011;55692;53.356;10.030;2023-04-19T05:57:06;4.40;;;2.40;;
68714;SDS011;55692;53.356;10.030;2023-04-19T05:59:32;6.32;;;2.03;;
68714;SDS011;55692;53.356;10.030;2023-04-19T06:01:58;3.47;;;2.22;;
68714;SDS011;55692;53.356;10.030;2023-04-19T06:04:25;3.63;;;1.95;;
68714;SDS011;55692;53.356;10.030;2023-04-19T06:06:51;4.10;;;2.03;;
68714;SDS011;55692;53.356;10.030;2023-04-19T06:09:17;4.25;;;2.10;;
68714;SDS011;55692;53.356;10.030;2023-04-19T06:11:43;3.75;;;1.88;;
68714;SDS011;55692;53.356;10.030;2023-04-19T06:14:10;6.20;;;1.92;;
68714;SDS011;55692;53.356;10.030;2023-04-19T06:16:40;4.25;;;1.70;;
68714;SDS011;55692;53.356;10.030;2023-04-19T06:19:06;8.02;;;1.55;;
68714;SDS011;55692;53.356;10.030;2023-04-19T06:21:32;2.55;;;1.50;;
68714;SDS011;55692;53.356;10.030;2023-04-19T06:23:58;3.95;;;1.58;;
68714;SDS011;55692;53.356;10.030;2023-04-19T06:26:24;3.05;;;1.27;;
68714;SDS011;55692;53.356;10.030;2023-04-19T06:28:50;2.22;;;1.30;;
68714;SDS011;55692;53.356;10.030;2023-04-19T06:31:16;2.38;;;1.50;;
68714;SDS011;55692;53.356;10.030;2023-04-19T06:33:42;2.78;;;1.45;;
68714;SDS011;55692;53.356;10.030;2023-04-19T06:36:08;4.07;;;1.90;;
68714;SDS011;55692;53.356;10.030;2023-04-19T06:38:34;2.75;;;1.45;;
68714;SDS011;55692;53.356;10.030;2023-04-19T06:41:02;3.42;;;2.22;;
68714;SDS011;55692;53.356;10.030;2023-04-19T06:43:28;2.40;;;1.40;;
68714;SDS011;55692;53.356;10.030;2023-04-19T06:45:57;2.00;;;1.15;;
68714;SDS011;55692;53.356;10.030;2023-04-19T06:48:23;3.10;;;1.40;;
68714;SDS011;55692;53.356;10.030;2023-04-19T06:50:50;4.57;;;1.35;;
68714;SDS011;55692;53.356;10.030;2023-04-19T06:53:16;2.08;;;1.20;;
68714;SDS011;55692;53.356;10.030;2023-04-19T06:55:43;2.30;;;1.15;;
68714;SDS011;55692;53.356;10.030;2023-04-19T06:58:09;1.90;;;1.02;;
68714;SDS011;55692;53.356;10.030;2023-04-19T07:00:35;3.75;;;1.48;;
68714;SDS011;55692;53.356;10.030;2023-04-19T07:03:01;2.92;;;1.33;;
68714;SDS011;55692;53.356;10.030;2023-04-19T07:05:28;2.42;;;1.27;;
68714;SDS011;55692;53.356;10.030;2023-04-19T07:07:54;2.35;;;1.27;;
68714;SDS011;55692;53.356;10.030;2023-04-19T07:10:20;3.08;;;1.08;;
68714;SDS011;55692;53.356;10.030;2023-04-19T07:12:46;1.13;;;0.82;;
68714;SDS011;55692;53.356;10.030;2023-04-19T07:15:12;2.05;;;1.20;;
68714;SDS011;55692;53.356;10.030;2023-04-19T07:17:39;2.28;;;1.30;;
68714;SDS011;55692;53.356;10.030;2023-04-19T07:20:05;2.15;;;1.10;;
68714;SDS011;55692;53.356;10.030;2023-04-19T07:22:31;1.83;;;1.02;;
68714;SDS011;55692;53.356;10.030;2023-04-19T07:24:57;2.20;;;0.90;;
68714;SDS011;55692;53.356;10.030;2023-04-19T07:27:24;2.35;;;1.40;;
68714;SDS011;55692;53.356;10.030;2023-04-19T07:29:50;1.45;;;0.93;;
68714;SDS011;55692;53.356;10.030;2023-04-19T07:32:17;2.90;;;1.17;;
68714;SDS011;55692;53.356;10.030;2023-04-19T07:34:43;1.98;;;0.80;;
68714;SDS011;55692;53.356;10.030;2023-04-19T07:37:10;4.53;;;1.02;;
68714;SDS011;55692;53.356;10.030;2023-04-19T07:39:36;1.70;;;0.80;;
68714;SDS011;55692;53.356;10.030;2023-04-19T07:42:02;4.75;;;1.00;;
68714;SDS011;55692;53.356;10.030;2023-04-19T07:44:28;4.40;;;0.68;;
68714;SDS011;55692;53.356;10.030;2023-04-19T07:46:54;2.90;;;1.08;;
68714;SDS011;55692;53.356;10.030;2023-04-19T07:49:21;1.30;;;1.00;;
68714;SDS011;55692;53.356;10.030;2023-04-19T07:51:47;2.10;;;0.70;;
68714;SDS011;55692;53.356;10.030;2023-04-19T07:54:13;2.92;;;1.05;;
68714;SDS011;55692;53.356;10.030;2023-04-19T07:56:44;1.40;;;0.77;;
68714;SDS011;55692;53.356;10.030;2023-04-19T07:59:11;2.53;;;0.85;;
68714;SDS011;55692;53.356;10.030;2023-04-19T08:01:37;3.92;;;0.80;;
68714;SDS011;55692;53.356;10.030;2023-04-19T08:04:03;1.52;;;0.80;;
68714;SDS011;55692;53.356;10.030;2023-04-19T08:06:29;1.60;;;0.80;;
68714;SDS011;55692;53.356;10.030;2023-04-19T08:08:56;4.15;;;1.00;;
68714;SDS011;55692;53.356;10.030;2023-04-19T08:11:22;3.83;;;1.08;;
68714;SDS011;55692;53.356;10.030;2023-04-19T08:13:49;1.52;;;0.82;;
68714;SDS011;55692;53.356;10.030;2023-04-19T08:16:15;0.68;;;0.60;;
68714;SDS011;55692;53.356;10.030;2023-04-19T08:18:41;4.18;;;0.77;;
68714;SDS011;55692;53.356;10.030;2023-04-19T08:21:10;4.20;;;0.98;;
68714;SDS011;55692;53.356;10.030;2023-04-19T08:23:36;2.38;;;0.90;;
68714;SDS011;55692;53.356;10.030;2023-04-19T08:26:02;2.15;;;0.85;;
68714;SDS011;55692;53.356;10.030;2023-04-19T08:28:28;3.30;;;1.10;;
68714;SDS011;55692;53.356;10.030;2023-04-19T08:30:54;4.57;;;1.17;;
68714;SDS011;55692;53.356;10.030;2023-04-19T08:33:20;2.67;;;1.08;;
68714;SDS011;55692;53.356;10.030;2023-04-19T08:35:46;1.88;;;0.95;;
68714;SDS011;55692;53.356;10.030;2023-04-19T08:38:12;1.77;;;1.00;;
68714;SDS011;55692;53.356;10.030;2023-04-19T08:40:40;1.55;;;1.02;;
68714;SDS011;55692;53.356;10.030;2023-04-19T08:43:07;3.22;;;1.23;;
68714;SDS011;55692;53.356;10.030;2023-04-19T08:45:33;2.60;;;0.73;;
68714;SDS011;55692;53.356;10.030;2023-04-19T08:48:00;2.40;;;1.00;;
68714;SDS011;55692;53.356;10.030;2023-04-19T08:50:28;2.67;;;1.13;;
68714;SDS011;55692;53.356;10.030;2023-04-19T08:52:54;2.40;;;1.10;;
68714;SDS011;55692;53.356;10.030;2023-04-19T08:55:20;2.03;;;1.00;;
68714;SDS011;55692;53.356;10.030;2023-04-19T08:57:46;8.30;;;1.00;;
68714;SDS011;55692;53.356;10.030;2023-04-19T09:00:12;3.15;;;1.15;;
68714;SDS011;55692;53.356;10.030;2023-04-19T09:02:46;5.68;;;1.20;;
68714;SDS011;55692;53.356;10.030;2023-04-19T09:05:12;1.13;;;0.80;;
68714;SDS011;55692;53.356;10.030;2023-04-19T09:07:39;8.00;;;1.13;;
68714;SDS011;55692;53.356;10.030;2023-04-19T09:12:33;2.33;;;1.50;;
68714;SDS011;55692;53.356;10.030;2023-04-19T09:15:00;1.67;;;0.95;;
68714;SDS011;55692;53.356;10.030;2023-04-19T09:17:28;2.25;;;1.15;;
68714;SDS011;55692;53.356;10.030;2023-04-19T09:19:54;4.90;;;1.33;;
68714;SDS011;55692;53.356;10.030;2023-04-19T09:22:20;2.78;;;1.20;;
68714;SDS011;55692;53.356;10.030;2023-04-19T09:24:46;3.38;;;1.20;;
68714;SDS011;55692;53.356;10.030;2023-04-19T09:27:13;6.63;;;1.20;;
68714;SDS011;55692;53.356;10.030;2023-04-19T09:29:39;2.80;;;1.33;;
68714;SDS011;55692;53.356;10.030;2023-04-19T09:32:05;3.20;;;1.42;;
68714;SDS011;55692;53.356;10.030;2023-04-19T09:34:31;5.30;;;1.40;;
68714;SDS011;55692;53.356;10.030;2023-04-19T09:37:05;2.78;;;1.20;;
68714;SDS011;55692;53.356;10.030;2023-04-19T09:39:36;4.75;;;1.50;;
68714;SDS011;55692;53.356;10.030;2023-04-19T09:42:02;2.15;;;1.27;;
68714;SDS011;55692;53.356;10.030;2023-04-19T09:44:28;1.70;;;1.30;;
68714;SDS011;55692;53.356;10.030;2023-04-19T09:46:54;5.78;;;1.55;;
68714;SDS011;55692;53.356;10.030;2023-04-19T09:49:23;6.75;;;2.00;;
68714;SDS011;55692;53.356;10.030;2023-04-19T09:51:51;3.00;;;1.70;;
68714;SDS011;55692;53.356;10.030;2023-04-19T09:54:18;3.78;;;1.40;;
68714;SDS011;55692;53.356;10.030;2023-04-19T09:56:45;6.93;;;1.58;;
68714;SDS011;55692;53.356;10.030;2023-04-19T09:59:11;5.82;;;1.50;;
68714;SDS011;55692;53.356;10.030;2023-04-19T10:01:46;1.98;;;1.10;;
68714;SDS011;55692;53.356;10.030;2023-04-19T10:04:15;15.32;;;2.30;;
68714;SDS011;55692;53.356;10.030;2023-04-19T10:06:52;4.90;;;1.50;;
68714;SDS011;55692;53.356;10.030;2023-04-19T10:09:18;3.33;;;1.20;;
68714;SDS011;55692;53.356;10.030;2023-04-19T10:11:52;9.13;;;2.10;;
68714;SDS011;55692;53.356;10.030;2023-04-19T10:14:24;5.78;;;1.67;;
68714;SDS011;55692;53.356;10.030;2023-04-19T10:16:51;11.93;;;1.67;;
68714;SDS011;55692;53.356;10.030;2023-04-19T10:19:18;3.95;;;1.73;;
68714;SDS011;55692;53.356;10.030;2023-04-19T10:21:46;1.60;;;1.08;;
68714;SDS011;55692;53.356;10.030;2023-04-19T10:24:13;3.47;;;1.63;;
68714;SDS011;55692;53.356;10.030;2023-04-19T10:32:12;5.78;;;1.48;;
68714;SDS011;55692;53.356;10.030;2023-04-19T10:34:40;3.78;;;1.75;;
68714;SDS011;55692;53.356;10.030;2023-04-19T10:37:10;2.65;;;1.40;;
68714;SDS011;55692;53.356;10.030;2023-04-19T10:39:42;6.28;;;1.45;;
68714;SDS011;55692;53.356;10.030;2023-04-19T10:42:09;4.30;;;1.52;;
68714;SDS011;55692;53.356;10.030;2023-04-19T10:44:35;4.95;;;1.45;;
68714;SDS011;55692;53.356;10.030;2023-04-19T10:47:01;3.28;;;1.40;;
68714;SDS011;55692;53.356;10.030;2023-04-19T10:49:27;6.22;;;1.70;;
68714;SDS011;55692;53.356;10.030;2023-04-19T10:51:53;4.72;;;1.42;;
68714;SDS011;55692;53.356;10.030;2023-04-19T10:57:05;4.35;;;1.70;;
68714;SDS011;55692;53.356;10.030;2023-04-19T10:59:32;6.45;;;1.50;;
68714;SDS011;55692;53.356;10.030;2023-04-19T11:01:59;4.47;;;1.85;;
68714;SDS011;55692;53.356;10.030;2023-04-19T11:11:47;3.22;;;1.48;;
68714;SDS011;55692;53.356;10.030;2023-04-19T11:14:13;3.60;;;2.22;;
68714;SDS011;55692;53.356;10.030;2023-04-19T11:16:40;4.63;;;2.03;;
68714;SDS011;55692;53.356;10.030;2023-04-19T11:19:06;3.03;;;2.17;;
68714;SDS011;55692;53.356;10.030;2023-04-19T11:21:32;5.78;;;1.92;;
68714;SDS011;55692;53.356;10.030;2023-04-19T11:24:05;3.15;;;2.05;;
68714;SDS011;55692;53.356;10.030;2023-04-19T11:26:32;5.63;;;1.88;;
68714;SDS011;55692;53.356;10.030;2023-04-19T11:28:58;4.95;;;1.73;;
68714;SDS011;55692;53.356;10.030;2023-04-19T11:31:24;2.83;;;1.60;;
68714;SDS011;55692;53.356;10.030;2023-04-19T11:33:51;4.35;;;1.70;;
68714;SDS011;55692;53.356;10.030;2023-04-19T11:36:17;5.53;;;1.73;;
68714;SDS011;55692;53.356;10.030;2023-04-19T11:38:46;7.78;;;2.50;;
68714;SDS011;55692;53.356;10.030;2023-04-19T11:41:12;3.90;;;2.05;;
68714;SDS011;55692;53.356;10.030;2023-04-19T11:43:38;2.63;;;1.63;;
68714;SDS011;55692;53.356;10.030;2023-04-19T11:46:09;4.00;;;1.80;;
68714;SDS011;55692;53.356;10.030;2023-04-19T11:48:35;3.38;;;1.45;;
68714;SDS011;55692;53.356;10.030;2023-04-19T11:51:01;6.30;;;1.90;;
68714;SDS011;55692;53.356;10.030;2023-04-19T11:53:29;28.58;;;3.50;;
68714;SDS011;55692;53.356;10.030;2023-04-19T11:55:57;2.33;;;1.55;;
68714;SDS011;55692;53.356;10.030;2023-04-19T11:58:29;2.20;;;1.48;;
68714;SDS011;55692;53.356;10.030;2023-04-19T12:01:02;3.72;;;1.50;;
68714;SDS011;55692;53.356;10.030;2023-04-19T12:03:30;7.93;;;1.70;;
68714;SDS011;55692;53.356;10.030;2023-04-19T12:05:56;4.80;;;1.70;;
68714;SDS011;55692;53.356;10.030;2023-04-19T12:08:29;6.32;;;1.83;;
68714;SDS011;55692;53.356;10.030;2023-04-19T12:10:56;4.47;;;1.63;;
68714;SDS011;55692;53.356;10.030;2023-04-19T12:13:23;6.65;;;2.05;;
68714;SDS011;55692;53.356;10.030;2023-04-19T12:15:49;5.53;;;1.55;;
68714;SDS011;55692;53.356;10.030;2023-04-19T12:18:15;4.30;;;2.38;;
68714;SDS011;55692;53.356;10.030;2023-04-19T12:20:43;4.50;;;1.45;;
68714;SDS011;55692;53.356;10.030;2023-04-19T12:23:09;3.13;;;1.63;;
68714;SDS011;55692;53.356;10.030;2023-04-19T12:25:38;9.10;;;2.20;;
68714;SDS011;55692;53.356;10.030;2023-04-19T12:28:05;4.25;;;2.08;;
68714;SDS011;55692;53.356;10.030;2023-04-19T12:30:31;3.60;;;1.52;;
68714;SDS011;55692;53.356;10.030;2023-04-19T12:32:57;2.53;;;1.63;;
68714;SDS011;55692;53.356;10.030;2023-04-19T12:35:24;4.55;;;1.45;;
68714;SDS011;55692;53.356;10.030;2023-04-19T12:37:52;4.57;;;1.70;;
68714;SDS011;55692;53.356;10.030;2023-04-19T12:40:18;4.82;;;1.50;;
68714;SDS011;55692;53.356;10.030;2023-04-19T12:42:44;3.65;;;1.60;;
68714;SDS011;55692;53.356;10.030;2023-04-19T12:45:11;4.75;;;1.60;;
68714;SDS011;55692;53.356;10.030;2023-04-19T12:47:37;3.97;;;2.08;;
68714;SDS011;55692;53.356;10.030;2023-04-19T12:50:03;5.57;;;2.10;;
68714;SDS011;55692;53.356;10.030;2023-04-19T12:52:30;3.38;;;1.77;;
68714;SDS011;55692;53.356;10.030;2023-04-19T12:54:56;3.88;;;2.05;;
68714;SDS011;55692;53.356;10.030;2023-04-19T12:57:22;6.03;;;1.90;;
68714;SDS011;55692;53.356;10.030;2023-04-19T12:59:48;3.65;;;1.77;;
68714;SDS011;55692;53.356;10.030;2023-04-19T13:02:13;3.75;;;1.88;;
68714;SDS011;55692;53.356;10.030;2023-04-19T13:04:40;4.72;;;1.85;;
68714;SDS011;55692;53.356;10.030;2023-04-19T13:07:06;5.82;;;1.70;;
68714;SDS011;55692;53.356;10.030;2023-04-19T13:09:32;4.70;;;2.03;;
68714;SDS011;55692;53.356;10.030;2023-04-19T13:11:58;3.40;;;1.48;;
68714;SDS011;55692;53.356;10.030;2023-04-19T13:14:25;7.00;;;1.50;;
68714;SDS011;55692;53.356;10.030;2023-04-19T13:16:51;3.35;;;1.77;;
68714;SDS011;55692;53.356;10.030;2023-04-19T13:19:17;3.20;;;1.70;;
68714;SDS011;55692;53.356;10.030;2023-04-19T13:21:43;2.55;;;1.70;;
68714;SDS011;55692;53.356;10.030;2023-04-19T13:24:09;5.60;;;1.92;;
68714;SDS011;55692;53.356;10.030;2023-04-19T13:26:35;10.20;;;2.08;;
68714;SDS011;55692;53.356;10.030;2023-04-19T13:29:01;5.07;;;1.55;;
68714;SDS011;55692;53.356;10.030;2023-04-19T13:31:27;2.63;;;1.58;;
68714;SDS011;55692;53.356;10.030;2023-04-19T13:33:53;2.90;;;1.60;;
68714;SDS011;55692;53.356;10.030;2023-04-19T13:36:19;5.22;;;1.67;;
68714;SDS011;55692;53.356;10.030;2023-04-19T13:38:45;6.75;;;1.80;;
68714;SDS011;55692;53.356;10.030;2023-04-19T13:41:12;6.65;;;1.83;;
68714;SDS011;55692;53.356;10.030;2023-04-19T13:43:38;3.80;;;1.40;;
68714;SDS011;55692;53.356;10.030;2023-04-19T13:46:04;4.47;;;1.65;;
68714;SDS011;55692;53.356;10.030;2023-04-19T13:48:30;5.30;;;1.27;;
68714;SDS011;55692;53.356;10.030;2023-04-19T13:50:57;2.97;;;1.65;;
68714;SDS011;55692;53.356;10.030;2023-04-19T13:53:24;4.20;;;1.60;;
68714;SDS011;55692;53.356;10.030;2023-04-19T13:55:51;4.00;;;1.70;;
68714;SDS011;55692;53.356;10.030;2023-04-19T13:58:17;4.28;;;1.92;;
68714;SDS011;55692;53.356;10.030;2023-04-19T14:00:44;5.93;;;1.48;;
68714;SDS011;55692;53.356;10.030;2023-04-19T14:03:10;2.75;;;1.95;;
68714;SDS011;55692;53.356;10.030;2023-04-19T14:05:36;2.95;;;1.40;;
68714;SDS011;55692;53.356;10.030;2023-04-19T14:08:02;4.80;;;1.40;;
68714;SDS011;55692;53.356;10.030;2023-04-19T14:10:28;2.92;;;1.48;;
68714;SDS011;55692;53.356;10.030;2023-04-19T14:12:54;5.32;;;1.75;;
68714;SDS011;55692;53.356;10.030;2023-04-19T14:15:20;8.63;;;2.40;;
68714;SDS011;55692;53.356;10.030;2023-04-19T14:17:47;3.97;;;1.45;;
68714;SDS011;55692;53.356;10.030;2023-04-19T14:20:13;3.67;;;1.73;;
68714;SDS011;55692;53.356;10.030;2023-04-19T14:22:40;7.90;;;1.70;;
68714;SDS011;55692;53.356;10.030;2023-04-19T14:25:06;2.35;;;1.73;;
68714;SDS011;55692;53.356;10.030;2023-04-19T14:27:32;4.65;;;1.77;;
68714;SDS011;55692;53.356;10.030;2023-04-19T14:29:58;4.03;;;2.00;;
68714;SDS011;55692;53.356;10.030;2023-04-19T14:32:24;2.78;;;1.90;;
68714;SDS011;55692;53.356;10.030;2023-04-19T14:34:50;3.47;;;1.63;;
68714;SDS011;55692;53.356;10.030;2023-04-19T14:37:17;5.70;;;1.95;;
68714;SDS011;55692;53.356;10.030;2023-04-19T14:39:43;3.72;;;2.10;;
68714;SDS011;55692;53.356;10.030;2023-04-19T14:42:09;3.33;;;1.92;;
68714;SDS011;55692;53.356;10.030;2023-04-19T14:44:36;4.38;;;1.80;;